sensor_id;sensor_type;location;lat;lon;timestamp;P1;durP1;ratioP1;P2;durP2;ratioP2
5904;SDS011;2978;42.012;24.880;2022-12-11T00:02:02;70.47;;;42.17;;
5904;SDS011;2978;42.012;24.880;2022-12-11T00:04:28;56.97;;;35.70;;
5904;SDS011;2978;42.012;24.880;2022-12-11T00:06:54;50.97;;;33.80;;
5904;SDS011;2978;42.012;24.880;2022-12-11T00:09:20;56.87;;;33.13;;
5904;SDS011;2978;42.012;24.880;2022-12-11T00:11:46;53.07;;;33.50;;
5904;SDS011;2978;42.012;24.880;2022-12-11T00:14:12;57.77;;;36.43;;
5904;SDS011;2978;42.012;24.880;2022-12-11T00:16:38;51.43;;;34.43;;
5904;SDS011;2978;42.012;24.880;2022-12-11T00:19:04;52.57;;;32.13;;
5904;SDS011;2978;42.012;24.880;2022-12-11T00:21:30;53.03;;;32.23;;
5904;SDS011;2978;42.012;24.880;2022-12-11T00:23:55;45.67;;;30.40;;
5904;SDS011;2978;42.012;24.880;2022-12-11T00:26:21;55.83;;;32.10;;
5904;SDS011;2978;42.012;24.880;2022-12-11T00:28:47;45.07;;;30.63;;
5904;SDS011;2978;42.012;24.880;2022-12-11T00:31:14;46.20;;;29.97;;
5904;SDS011;2978;42.012;24.880;2022-12-11T00:33:42;45.53;;;31.60;;
5904;SDS011;2978;42.012;24.880;2022-12-11T00:36:12;42.87;;;28.90;;
5904;SDS011;2978;42.012;24.880;2022-12-11T00:38:43;46.10;;;29.33;;
5904;SDS011;2978;42.012;24.880;2022-12-11T00:41:09;46.37;;;30.00;;
5904;SDS011;2978;42.012;24.880;2022-12-11T00:43:35;42.70;;;28.43;;
5904;SDS011;2978;42.012;24.880;2022-12-11T00:46:00;51.93;;;28.90;;
5904;SDS011;2978;42.012;24.880;2022-12-11T00:48:26;37.83;;;27.07;;
5904;SDS011;2978;42.012;24.880;2022-12-11T00:50:51;44.33;;;24.63;;
5904;SDS011;2978;42.012;24.880;2022-12-11T00:53:17;35.80;;;25.20;;
5904;SDS011;2978;42.012;24.880;2022-12-11T00:55:42;32.60;;;23.30;;
5904;SDS011;2978;42.012;24.880;2022-12-11T00:58:08;32.67;;;21.93;;
5904;SDS011;2978;42.012;24.880;2022-12-11T01:00:35;34.93;;;21.63;;
5904;SDS011;2978;42.012;24.880;2022-12-11T01:03:00;33.37;;;19.80;;
5904;SDS011;2978;42.012;24.880;2022-12-11T01:05:26;25.27;;;17.07;;
5904;SDS011;2978;42.012;24.880;2022-12-11T01:07:51;31.30;;;17.83;;
5904;SDS011;2978;42.012;24.880;2022-12-11T01:10:17;34.27;;;22.27;;
5904;SDS011;2978;42.012;24.880;2022-12-11T01:12:52;48.53;;;34.23;;
5904;SDS011;2978;42.012;24.880;2022-12-11T01:15:18;57.77;;;35.37;;
5904;SDS011;2978;42.012;24.880;2022-12-11T01:17:44;52.30;;;32.87;;
5904;SDS011;2978;42.012;24.880;2022-12-11T01:20:10;49.50;;;34.90;;
5904;SDS011;2978;42.012;24.880;2022-12-11T01:22:36;52.00;;;32.27;;
5904;SDS011;2978;42.012;24.880;2022-12-11T01:25:01;55.53;;;34.73;;
5904;SDS011;2978;42.012;24.880;2022-12-11T01:27:27;52.53;;;33.47;;
5904;SDS011;2978;42.012;24.880;2022-12-11T01:29:52;53.73;;;34.50;;
5904;SDS011;2978;42.012;24.880;2022-12-11T01:32:17;53.67;;;35.37;;
5904;SDS011;2978;42.012;24.880;2022-12-11T01:34:43;47.93;;;33.27;;
5904;SDS011;2978;42.012;24.880;2022-12-11T01:37:08;53.23;;;33.80;;
5904;SDS011;2978;42.012;24.880;2022-12-11T01:39:35;54.50;;;32.73;;
5904;SDS011;2978;42.012;24.880;2022-12-11T01:42:02;52.07;;;33.43;;
5904;SDS011;2978;42.012;24.880;2022-12-11T01:47:13;47.30;;;31.50;;
5904;SDS011;2978;42.012;24.880;2022-12-11T01:49:39;54.43;;;32.77;;
5904;SDS011;2978;42.012;24.880;2022-12-11T01:52:10;47.50;;;32.53;;
5904;SDS011;2978;42.012;24.880;2022-12-11T01:54:40;45.60;;;32.10;;
5904;SDS011;2978;42.012;24.880;2022-12-11T01:57:06;46.37;;;34.00;;
5904;SDS011;2978;42.012;24.880;2022-12-11T01:59:35;48.10;;;33.73;;
5904;SDS011;2978;42.012;24.880;2022-12-11T02:02:07;52.40;;;32.47;;
5904;SDS011;2978;42.012;24.880;2022-12-11T02:04:36;52.37;;;31.57;;
5904;SDS011;2978;42.012;24.880;2022-12-11T02:07:04;51.23;;;31.37;;
5904;SDS011;2978;42.012;24.880;2022-12-11T02:09:30;46.20;;;29.20;;
5904;SDS011;2978;42.012;24.880;2022-12-11T02:17:00;46.20;;;30.83;;
5904;SDS011;2978;42.012;24.880;2022-12-11T02:25:29;44.87;;;26.20;;
5904;SDS011;2978;42.012;24.880;2022-12-11T02:28:08;36.87;;;21.50;;
5904;SDS011;2978;42.012;24.880;2022-12-11T02:30:41;29.47;;;17.07;;
5904;SDS011;2978;42.012;24.880;2022-12-11T02:33:11;30.57;;;17.93;;
5904;SDS011;2978;42.012;24.880;2022-12-11T02:35:39;34.93;;;20.00;;
5904;SDS011;2978;42.012;24.880;2022-12-11T02:40:51;33.87;;;14.70;;
5904;SDS011;2978;42.012;24.880;2022-12-11T02:43:18;23.17;;;12.93;;
5904;SDS011;2978;42.012;24.880;2022-12-11T02:45:46;20.47;;;11.53;;
5904;SDS011;2978;42.012;24.880;2022-12-11T02:48:13;18.00;;;8.00;;
5904;SDS011;2978;42.012;24.880;2022-12-11T02:50:47;15.87;;;8.00;;
5904;SDS011;2978;42.012;24.880;2022-12-11T02:53:18;17.33;;;6.27;;
5904;SDS011;2978;42.012;24.880;2022-12-11T02:55:46;12.03;;;5.93;;
5904;SDS011;2978;42.012;24.880;2022-12-11T02:58:17;10.20;;;4.93;;
5904;SDS011;2978;42.012;24.880;2022-12-11T03:00:46;14.57;;;6.57;;
5904;SDS011;2978;42.012;24.880;2022-12-11T03:03:12;15.37;;;6.87;;
5904;SDS011;2978;42.012;24.880;2022-12-11T03:05:38;18.73;;;6.63;;
5904;SDS011;2978;42.012;24.880;2022-12-11T03:08:04;18.63;;;10.03;;
5904;SDS011;2978;42.012;24.880;2022-12-11T03:10:30;22.30;;;16.20;;
5904;SDS011;2978;42.012;24.880;2022-12-11T03:12:55;35.33;;;19.20;;
5904;SDS011;2978;42.012;24.880;2022-12-11T03:15:26;40.63;;;19.60;;
5904;SDS011;2978;42.012;24.880;2022-12-11T03:18:23;32.27;;;15.63;;
5904;SDS011;2978;42.012;24.880;2022-12-11T03:21:09;29.33;;;16.73;;
5904;SDS011;2978;42.012;24.880;2022-12-11T03:23:54;33.43;;;15.60;;
5904;SDS011;2978;42.012;24.880;2022-12-11T03:26:26;33.33;;;16.73;;
5904;SDS011;2978;42.012;24.880;2022-12-11T03:29:01;20.70;;;14.20;;
5904;SDS011;2978;42.012;24.880;2022-12-11T03:31:41;23.90;;;14.57;;
5904;SDS011;2978;42.012;24.880;2022-12-11T03:34:12;35.30;;;16.67;;
5904;SDS011;2978;42.012;24.880;2022-12-11T03:36:43;30.07;;;16.23;;
5904;SDS011;2978;42.012;24.880;2022-12-11T03:39:14;27.27;;;15.53;;
5904;SDS011;2978;42.012;24.880;2022-12-11T03:41:44;36.67;;;17.20;;
5904;SDS011;2978;42.012;24.880;2022-12-11T03:44:11;26.20;;;15.67;;
5904;SDS011;2978;42.012;24.880;2022-12-11T03:46:39;27.97;;;14.33;;
5904;SDS011;2978;42.012;24.880;2022-12-11T03:49:11;27.73;;;14.50;;
5904;SDS011;2978;42.012;24.880;2022-12-11T03:51:40;31.00;;;14.40;;
5904;SDS011;2978;42.012;24.880;2022-12-11T03:54:09;32.20;;;13.23;;
5904;SDS011;2978;42.012;24.880;2022-12-11T03:56:35;27.53;;;14.03;;
5904;SDS011;2978;42.012;24.880;2022-12-11T03:59:03;28.80;;;13.67;;
5904;SDS011;2978;42.012;24.880;2022-12-11T04:01:29;26.67;;;14.57;;
5904;SDS011;2978;42.012;24.880;2022-12-11T04:03:54;23.90;;;11.63;;
5904;SDS011;2978;42.012;24.880;2022-12-11T04:06:20;18.30;;;12.73;;
5904;SDS011;2978;42.012;24.880;2022-12-11T04:08:45;26.40;;;12.60;;
5904;SDS011;2978;42.012;24.880;2022-12-11T04:11:11;22.77;;;13.17;;
5904;SDS011;2978;42.012;24.880;2022-12-11T04:13:55;20.37;;;13.70;;
5904;SDS011;2978;42.012;24.880;2022-12-11T04:16:39;23.70;;;14.63;;
5904;SDS011;2978;42.012;24.880;2022-12-11T04:19:04;24.63;;;13.03;;
5904;SDS011;2978;42.012;24.880;2022-12-11T04:21:48;23.73;;;13.00;;
5904;SDS011;2978;42.012;24.880;2022-12-11T04:24:32;30.23;;;16.20;;
5904;SDS011;2978;42.012;24.880;2022-12-11T04:26:58;22.40;;;11.37;;
5904;SDS011;2978;42.012;24.880;2022-12-11T04:29:24;14.33;;;7.97;;
5904;SDS011;2978;42.012;24.880;2022-12-11T04:31:49;19.93;;;8.77;;
5904;SDS011;2978;42.012;24.880;2022-12-11T04:34:15;18.20;;;11.10;;
5904;SDS011;2978;42.012;24.880;2022-12-11T04:36:41;19.80;;;10.87;;
5904;SDS011;2978;42.012;24.880;2022-12-11T04:39:07;15.70;;;9.80;;
5904;SDS011;2978;42.012;24.880;2022-12-11T04:41:33;23.60;;;10.80;;
5904;SDS011;2978;42.012;24.880;2022-12-11T04:43:59;17.57;;;10.00;;
5904;SDS011;2978;42.012;24.880;2022-12-11T04:46:25;21.20;;;10.20;;
5904;SDS011;2978;42.012;24.880;2022-12-11T04:48:51;10.77;;;7.83;;
5904;SDS011;2978;42.012;24.880;2022-12-11T04:51:17;15.40;;;8.60;;
5904;SDS011;2978;42.012;24.880;2022-12-11T04:53:43;26.67;;;9.80;;
5904;SDS011;2978;42.012;24.880;2022-12-11T04:56:11;14.20;;;7.87;;
5904;SDS011;2978;42.012;24.880;2022-12-11T04:58:38;20.03;;;9.37;;
5904;SDS011;2978;42.012;24.880;2022-12-11T05:01:08;14.83;;;8.60;;
5904;SDS011;2978;42.012;24.880;2022-12-11T05:03:34;13.87;;;7.23;;
5904;SDS011;2978;42.012;24.880;2022-12-11T05:06:00;43.23;;;25.10;;
5904;SDS011;2978;42.012;24.880;2022-12-11T05:08:26;12.20;;;7.27;;
5904;SDS011;2978;42.012;24.880;2022-12-11T05:10:58;13.10;;;6.77;;
5904;SDS011;2978;42.012;24.880;2022-12-11T05:13:25;11.63;;;6.00;;
5904;SDS011;2978;42.012;24.880;2022-12-11T05:15:52;14.37;;;6.87;;
5904;SDS011;2978;42.012;24.880;2022-12-11T05:18:17;16.80;;;6.10;;
5904;SDS011;2978;42.012;24.880;2022-12-11T05:20:43;16.07;;;6.67;;
5904;SDS011;2978;42.012;24.880;2022-12-11T05:23:09;14.20;;;7.00;;
5904;SDS011;2978;42.012;24.880;2022-12-11T05:25:34;11.33;;;6.90;;
5904;SDS011;2978;42.012;24.880;2022-12-11T05:27:59;14.47;;;7.17;;
5904;SDS011;2978;42.012;24.880;2022-12-11T05:30:25;16.13;;;8.03;;
5904;SDS011;2978;42.012;24.880;2022-12-11T05:32:50;16.57;;;9.53;;
5904;SDS011;2978;42.012;24.880;2022-12-11T05:35:16;14.47;;;7.67;;
5904;SDS011;2978;42.012;24.880;2022-12-11T05:37:41;12.00;;;7.20;;
5904;SDS011;2978;42.012;24.880;2022-12-11T05:40:07;17.37;;;8.70;;
5904;SDS011;2978;42.012;24.880;2022-12-11T05:42:33;15.70;;;9.00;;
5904;SDS011;2978;42.012;24.880;2022-12-11T05:44:59;25.00;;;9.63;;
5904;SDS011;2978;42.012;24.880;2022-12-11T05:47:24;19.07;;;9.07;;
5904;SDS011;2978;42.012;24.880;2022-12-11T05:49:50;21.17;;;9.17;;
5904;SDS011;2978;42.012;24.880;2022-12-11T05:52:15;22.00;;;9.37;;
5904;SDS011;2978;42.012;24.880;2022-12-11T05:54:41;26.90;;;10.83;;
5904;SDS011;2978;42.012;24.880;2022-12-11T05:57:07;18.07;;;9.83;;
5904;SDS011;2978;42.012;24.880;2022-12-11T05:59:32;20.23;;;11.30;;
5904;SDS011;2978;42.012;24.880;2022-12-11T06:01:58;12.67;;;9.30;;
5904;SDS011;2978;42.012;24.880;2022-12-11T06:04:23;22.60;;;10.90;;
5904;SDS011;2978;42.012;24.880;2022-12-11T06:06:49;20.60;;;11.27;;
5904;SDS011;2978;42.012;24.880;2022-12-11T06:09:14;23.90;;;11.00;;
5904;SDS011;2978;42.012;24.880;2022-12-11T06:11:40;16.47;;;7.63;;
5904;SDS011;2978;42.012;24.880;2022-12-11T06:14:06;13.83;;;7.37;;
5904;SDS011;2978;42.012;24.880;2022-12-11T06:16:33;15.20;;;8.70;;
5904;SDS011;2978;42.012;24.880;2022-12-11T06:18:59;26.43;;;10.27;;
5904;SDS011;2978;42.012;24.880;2022-12-11T06:21:33;20.70;;;9.57;;
5904;SDS011;2978;42.012;24.880;2022-12-11T06:24:00;26.30;;;10.53;;
5904;SDS011;2978;42.012;24.880;2022-12-11T06:26:26;12.90;;;6.53;;
5904;SDS011;2978;42.012;24.880;2022-12-11T06:28:52;11.40;;;5.47;;
5904;SDS011;2978;42.012;24.880;2022-12-11T06:31:18;17.20;;;6.70;;
5904;SDS011;2978;42.012;24.880;2022-12-11T06:33:43;20.07;;;7.20;;
5904;SDS011;2978;42.012;24.880;2022-12-11T06:36:10;12.97;;;5.50;;
5904;SDS011;2978;42.012;24.880;2022-12-11T06:38:39;15.30;;;7.73;;
5904;SDS011;2978;42.012;24.880;2022-12-11T06:41:05;18.40;;;7.33;;
5904;SDS011;2978;42.012;24.880;2022-12-11T06:43:31;17.60;;;8.43;;
5904;SDS011;2978;42.012;24.880;2022-12-11T06:45:58;20.83;;;10.07;;
5904;SDS011;2978;42.012;24.880;2022-12-11T06:48:24;20.47;;;8.90;;
5904;SDS011;2978;42.012;24.880;2022-12-11T06:50:49;30.73;;;12.93;;
5904;SDS011;2978;42.012;24.880;2022-12-11T06:53:15;26.87;;;12.20;;
5904;SDS011;2978;42.012;24.880;2022-12-11T06:55:41;17.37;;;9.27;;
5904;SDS011;2978;42.012;24.880;2022-12-11T06:58:07;17.10;;;9.80;;
5904;SDS011;2978;42.012;24.880;2022-12-11T07:00:34;32.67;;;12.90;;
5904;SDS011;2978;42.012;24.880;2022-12-11T07:03:00;24.40;;;12.03;;
5904;SDS011;2978;42.012;24.880;2022-12-11T07:05:26;25.40;;;13.17;;
5904;SDS011;2978;42.012;24.880;2022-12-11T07:07:52;23.13;;;15.27;;
5904;SDS011;2978;42.012;24.880;2022-12-11T07:10:18;25.60;;;14.57;;
5904;SDS011;2978;42.012;24.880;2022-12-11T07:12:44;29.23;;;14.40;;
5904;SDS011;2978;42.012;24.880;2022-12-11T07:15:09;32.90;;;17.43;;
5904;SDS011;2978;42.012;24.880;2022-12-11T07:17:35;32.17;;;15.70;;
5904;SDS011;2978;42.012;24.880;2022-12-11T07:20:00;25.00;;;13.83;;
5904;SDS011;2978;42.012;24.880;2022-12-11T07:22:27;16.90;;;8.93;;
5904;SDS011;2978;42.012;24.880;2022-12-11T07:24:53;16.87;;;11.53;;
5904;SDS011;2978;42.012;24.880;2022-12-11T07:27:18;29.07;;;17.50;;
5904;SDS011;2978;42.012;24.880;2022-12-11T07:29:43;43.57;;;26.10;;
5904;SDS011;2978;42.012;24.880;2022-12-11T07:32:09;31.60;;;17.07;;
5904;SDS011;2978;42.012;24.880;2022-12-11T07:34:34;18.90;;;11.17;;
5904;SDS011;2978;42.012;24.880;2022-12-11T07:37:00;26.20;;;12.80;;
5904;SDS011;2978;42.012;24.880;2022-12-11T07:39:25;26.50;;;11.53;;
5904;SDS011;2978;42.012;24.880;2022-12-11T07:41:51;28.13;;;12.70;;
5904;SDS011;2978;42.012;24.880;2022-12-11T07:44:17;20.83;;;10.00;;
5904;SDS011;2978;42.012;24.880;2022-12-11T07:46:43;23.00;;;11.47;;
5904;SDS011;2978;42.012;24.880;2022-12-11T07:49:08;20.07;;;11.47;;
5904;SDS011;2978;42.012;24.880;2022-12-11T07:51:34;22.97;;;12.30;;
5904;SDS011;2978;42.012;24.880;2022-12-11T07:54:02;12.27;;;8.17;;
5904;SDS011;2978;42.012;24.880;2022-12-11T07:56:30;12.33;;;6.23;;
5904;SDS011;2978;42.012;24.880;2022-12-11T07:59:00;11.90;;;7.00;;
5904;SDS011;2978;42.012;24.880;2022-12-11T08:01:27;30.87;;;14.50;;
5904;SDS011;2978;42.012;24.880;2022-12-11T08:03:54;22.80;;;12.90;;
5904;SDS011;2978;42.012;24.880;2022-12-11T08:06:23;22.70;;;11.70;;
5904;SDS011;2978;42.012;24.880;2022-12-11T08:08:53;21.97;;;12.20;;
5904;SDS011;2978;42.012;24.880;2022-12-11T08:11:19;28.37;;;13.03;;
5904;SDS011;2978;42.012;24.880;2022-12-11T08:17:06;31.07;;;19.00;;
5904;SDS011;2978;42.012;24.880;2022-12-11T08:19:32;30.80;;;15.53;;
5904;SDS011;2978;42.012;24.880;2022-12-11T08:21:57;28.47;;;10.07;;
5904;SDS011;2978;42.012;24.880;2022-12-11T08:24:23;27.57;;;13.43;;
5904;SDS011;2978;42.012;24.880;2022-12-11T08:26:48;27.83;;;14.07;;
5904;SDS011;2978;42.012;24.880;2022-12-11T08:29:13;27.90;;;12.03;;
5904;SDS011;2978;42.012;24.880;2022-12-11T08:31:39;24.83;;;10.23;;
5904;SDS011;2978;42.012;24.880;2022-12-11T08:34:05;29.03;;;13.10;;
5904;SDS011;2978;42.012;24.880;2022-12-11T08:36:31;23.93;;;12.93;;
5904;SDS011;2978;42.012;24.880;2022-12-11T08:38:56;19.43;;;9.53;;
5904;SDS011;2978;42.012;24.880;2022-12-11T08:41:26;18.83;;;8.37;;
5904;SDS011;2978;42.012;24.880;2022-12-11T08:43:55;29.10;;;8.77;;
5904;SDS011;2978;42.012;24.880;2022-12-11T08:46:22;16.53;;;8.10;;
5904;SDS011;2978;42.012;24.880;2022-12-11T08:48:49;14.30;;;6.40;;
5904;SDS011;2978;42.012;24.880;2022-12-11T08:51:16;18.63;;;8.90;;
5904;SDS011;2978;42.012;24.880;2022-12-11T08:53:44;22.50;;;7.30;;
5904;SDS011;2978;42.012;24.880;2022-12-11T08:56:11;16.23;;;5.83;;
5904;SDS011;2978;42.012;24.880;2022-12-11T08:58:38;22.30;;;9.60;;
5904;SDS011;2978;42.012;24.880;2022-12-11T09:01:05;22.87;;;8.23;;
5904;SDS011;2978;42.012;24.880;2022-12-11T09:03:42;19.80;;;9.87;;
5904;SDS011;2978;42.012;24.880;2022-12-11T09:06:11;31.37;;;10.30;;
5904;SDS011;2978;42.012;24.880;2022-12-11T09:08:39;19.07;;;6.20;;
5904;SDS011;2978;42.012;24.880;2022-12-11T09:11:07;39.27;;;9.27;;
5904;SDS011;2978;42.012;24.880;2022-12-11T09:13:37;65.50;;;8.67;;
5904;SDS011;2978;42.012;24.880;2022-12-11T09:16:04;37.90;;;7.60;;
5904;SDS011;2978;42.012;24.880;2022-12-11T09:18:31;31.47;;;10.80;;
5904;SDS011;2978;42.012;24.880;2022-12-11T09:21:04;18.50;;;5.80;;
5904;SDS011;2978;42.012;24.880;2022-12-11T09:23:31;11.83;;;6.40;;
5904;SDS011;2978;42.012;24.880;2022-12-11T09:25:57;13.60;;;6.50;;
5904;SDS011;2978;42.012;24.880;2022-12-11T09:28:22;11.30;;;6.10;;
5904;SDS011;2978;42.012;24.880;2022-12-11T09:30:48;17.03;;;8.20;;
5904;SDS011;2978;42.012;24.880;2022-12-11T09:33:14;16.40;;;7.93;;
5904;SDS011;2978;42.012;24.880;2022-12-11T09:35:40;20.53;;;7.87;;
5904;SDS011;2978;42.012;24.880;2022-12-11T09:38:06;17.27;;;8.70;;
5904;SDS011;2978;42.012;24.880;2022-12-11T09:40:31;31.80;;;11.17;;
5904;SDS011;2978;42.012;24.880;2022-12-11T09:42:59;18.33;;;9.70;;
5904;SDS011;2978;42.012;24.880;2022-12-11T09:45:30;77.13;;;12.07;;
5904;SDS011;2978;42.012;24.880;2022-12-11T09:47:57;57.20;;;15.37;;
5904;SDS011;2978;42.012;24.880;2022-12-11T09:50:26;60.20;;;16.03;;
5904;SDS011;2978;42.012;24.880;2022-12-11T09:55:38;66.80;;;12.80;;
5904;SDS011;2978;42.012;24.880;2022-12-11T10:00:46;37.63;;;11.57;;
5904;SDS011;2978;42.012;24.880;2022-12-11T10:06:11;20.80;;;8.63;;
5904;SDS011;2978;42.012;24.880;2022-12-11T10:08:57;87.60;;;15.63;;
5904;SDS011;2978;42.012;24.880;2022-12-11T10:16:43;38.97;;;14.03;;
5904;SDS011;2978;42.012;24.880;2022-12-11T10:19:19;44.20;;;16.17;;
5904;SDS011;2978;42.012;24.880;2022-12-11T10:21:47;20.60;;;8.00;;
5904;SDS011;2978;42.012;24.880;2022-12-11T10:24:33;20.80;;;7.57;;
5904;SDS011;2978;42.012;24.880;2022-12-11T10:27:17;52.93;;;10.83;;
5904;SDS011;2978;42.012;24.880;2022-12-11T10:29:48;40.57;;;11.83;;
5904;SDS011;2978;42.012;24.880;2022-12-11T10:32:53;35.57;;;8.90;;
5904;SDS011;2978;42.012;24.880;2022-12-11T10:35:41;38.63;;;9.97;;
5904;SDS011;2978;42.012;24.880;2022-12-11T10:38:16;34.13;;;8.80;;
5904;SDS011;2978;42.012;24.880;2022-12-11T10:40:48;57.30;;;11.33;;
5904;SDS011;2978;42.012;24.880;2022-12-11T10:43:15;34.63;;;9.37;;
5904;SDS011;2978;42.012;24.880;2022-12-11T10:45:53;26.03;;;7.37;;
5904;SDS011;2978;42.012;24.880;2022-12-11T10:48:19;44.80;;;9.10;;
5904;SDS011;2978;42.012;24.880;2022-12-11T10:50:55;33.83;;;10.30;;
5904;SDS011;2978;42.012;24.880;2022-12-11T10:53:23;27.63;;;5.87;;
5904;SDS011;2978;42.012;24.880;2022-12-11T10:55:49;9.70;;;3.70;;
5904;SDS011;2978;42.012;24.880;2022-12-11T10:58:18;12.63;;;4.20;;
5904;SDS011;2978;42.012;24.880;2022-12-11T11:01:13;19.33;;;5.10;;
5904;SDS011;2978;42.012;24.880;2022-12-11T11:03:57;11.20;;;5.80;;
5904;SDS011;2978;42.012;24.880;2022-12-11T11:06:40;13.63;;;4.90;;
5904;SDS011;2978;42.012;24.880;2022-12-11T11:09:21;21.37;;;6.47;;
5904;SDS011;2978;42.012;24.880;2022-12-11T11:11:53;23.93;;;5.83;;
5904;SDS011;2978;42.012;24.880;2022-12-11T11:14:20;10.80;;;4.13;;
5904;SDS011;2978;42.012;24.880;2022-12-11T11:16:48;21.43;;;4.10;;
5904;SDS011;2978;42.012;24.880;2022-12-11T11:19:23;11.57;;;3.37;;
5904;SDS011;2978;42.012;24.880;2022-12-11T11:21:56;9.80;;;3.20;;
5904;SDS011;2978;42.012;24.880;2022-12-11T11:24:39;10.37;;;4.03;;
5904;SDS011;2978;42.012;24.880;2022-12-11T11:29:50;17.23;;;3.80;;
5904;SDS011;2978;42.012;24.880;2022-12-11T11:32:21;8.67;;;2.90;;
5904;SDS011;2978;42.012;24.880;2022-12-11T11:34:50;9.30;;;2.40;;
5904;SDS011;2978;42.012;24.880;2022-12-11T11:37:23;5.80;;;3.40;;
5904;SDS011;2978;42.012;24.880;2022-12-11T11:39:58;7.30;;;2.93;;
5904;SDS011;2978;42.012;24.880;2022-12-11T11:42:42;17.60;;;3.80;;
5904;SDS011;2978;42.012;24.880;2022-12-11T11:45:19;13.60;;;3.00;;
5904;SDS011;2978;42.012;24.880;2022-12-11T11:47:55;10.13;;;4.47;;
5904;SDS011;2978;42.012;24.880;2022-12-11T11:50:29;13.60;;;4.80;;
5904;SDS011;2978;42.012;24.880;2022-12-11T12:01:16;21.27;;;4.97;;
5904;SDS011;2978;42.012;24.880;2022-12-11T12:03:44;28.97;;;5.77;;
5904;SDS011;2978;42.012;24.880;2022-12-11T12:12:02;15.30;;;2.30;;
5904;SDS011;2978;42.012;24.880;2022-12-11T12:28:43;8.40;;;2.37;;
5904;SDS011;2978;42.012;24.880;2022-12-11T12:40:03;14.03;;;3.27;;
5904;SDS011;2978;42.012;24.880;2022-12-11T12:48:23;14.10;;;2.93;;
5904;SDS011;2978;42.012;24.880;2022-12-11T12:50:50;11.53;;;3.07;;
5904;SDS011;2978;42.012;24.880;2022-12-11T12:53:17;5.50;;;2.20;;
5904;SDS011;2978;42.012;24.880;2022-12-11T12:55:46;5.83;;;2.00;;
5904;SDS011;2978;42.012;24.880;2022-12-11T12:58:38;5.40;;;2.27;;
5904;SDS011;2978;42.012;24.880;2022-12-11T13:03:48;5.33;;;1.57;;
5904;SDS011;2978;42.012;24.880;2022-12-11T13:09:18;2.80;;;1.67;;
5904;SDS011;2978;42.012;24.880;2022-12-11T13:11:46;2.97;;;1.50;;
5904;SDS011;2978;42.012;24.880;2022-12-11T13:16:48;25.27;;;2.93;;
5904;SDS011;2978;42.012;24.880;2022-12-11T13:24:25;7.00;;;2.87;;
5904;SDS011;2978;42.012;24.880;2022-12-11T13:26:52;8.40;;;3.83;;
5904;SDS011;2978;42.012;24.880;2022-12-11T13:29:34;8.40;;;3.13;;
5904;SDS011;2978;42.012;24.880;2022-12-11T13:34:36;12.37;;;3.07;;
5904;SDS011;2978;42.012;24.880;2022-12-11T13:37:20;5.73;;;2.20;;
5904;SDS011;2978;42.012;24.880;2022-12-11T13:39:48;23.50;;;3.90;;
5904;SDS011;2978;42.012;24.880;2022-12-11T13:42:27;11.07;;;2.43;;
5904;SDS011;2978;42.012;24.880;2022-12-11T13:44:57;3.70;;;2.07;;
5904;SDS011;2978;42.012;24.880;2022-12-11T13:47:23;4.93;;;2.20;;
5904;SDS011;2978;42.012;24.880;2022-12-11T13:49:52;4.80;;;2.70;;
5904;SDS011;2978;42.012;24.880;2022-12-11T13:52:20;8.60;;;2.30;;
5904;SDS011;2978;42.012;24.880;2022-12-11T13:54:51;5.47;;;2.47;;
5904;SDS011;2978;42.012;24.880;2022-12-11T13:57:21;5.73;;;2.43;;
5904;SDS011;2978;42.012;24.880;2022-12-11T13:59:53;9.23;;;2.97;;
5904;SDS011;2978;42.012;24.880;2022-12-11T14:02:23;7.20;;;3.13;;
5904;SDS011;2978;42.012;24.880;2022-12-11T14:04:56;6.03;;;2.80;;
5904;SDS011;2978;42.012;24.880;2022-12-11T14:07:25;5.10;;;2.73;;
5904;SDS011;2978;42.012;24.880;2022-12-11T14:09:58;12.90;;;2.50;;
5904;SDS011;2978;42.012;24.880;2022-12-11T14:12:26;4.80;;;3.20;;
5904;SDS011;2978;42.012;24.880;2022-12-11T14:14:54;4.40;;;2.30;;
5904;SDS011;2978;42.012;24.880;2022-12-11T14:17:26;5.17;;;2.13;;
5904;SDS011;2978;42.012;24.880;2022-12-11T14:19:53;2.90;;;1.40;;
5904;SDS011;2978;42.012;24.880;2022-12-11T14:22:23;3.80;;;2.50;;
5904;SDS011;2978;42.012;24.880;2022-12-11T14:24:52;6.23;;;3.30;;
5904;SDS011;2978;42.012;24.880;2022-12-11T14:27:19;3.80;;;2.43;;
5904;SDS011;2978;42.012;24.880;2022-12-11T14:29:45;4.00;;;2.27;;
5904;SDS011;2978;42.012;24.880;2022-12-11T14:32:15;4.30;;;2.47;;
5904;SDS011;2978;42.012;24.880;2022-12-11T14:35:03;4.27;;;2.30;;
5904;SDS011;2978;42.012;24.880;2022-12-11T14:37:35;7.33;;;3.60;;
5904;SDS011;2978;42.012;24.880;2022-12-11T14:42:54;4.83;;;2.70;;
5904;SDS011;2978;42.012;24.880;2022-12-11T14:48:00;6.93;;;3.80;;
5904;SDS011;2978;42.012;24.880;2022-12-11T14:52:58;6.60;;;3.70;;
5904;SDS011;2978;42.012;24.880;2022-12-11T14:55:31;11.47;;;5.70;;
5904;SDS011;2978;42.012;24.880;2022-12-11T14:57:59;10.13;;;5.50;;
5904;SDS011;2978;42.012;24.880;2022-12-11T15:00:58;16.07;;;8.83;;
5904;SDS011;2978;42.012;24.880;2022-12-11T15:03:29;12.87;;;6.27;;
5904;SDS011;2978;42.012;24.880;2022-12-11T15:05:59;19.03;;;9.17;;
5904;SDS011;2978;42.012;24.880;2022-12-11T15:08:27;11.60;;;6.70;;
5904;SDS011;2978;42.012;24.880;2022-12-11T15:13:37;10.30;;;4.63;;
5904;SDS011;2978;42.012;24.880;2022-12-11T15:16:16;19.23;;;8.60;;
5904;SDS011;2978;42.012;24.880;2022-12-11T15:18:42;23.33;;;11.00;;
5904;SDS011;2978;42.012;24.880;2022-12-11T15:21:13;24.33;;;11.00;;
5904;SDS011;2978;42.012;24.880;2022-12-11T15:23:50;25.00;;;12.93;;
5904;SDS011;2978;42.012;24.880;2022-12-11T15:26:19;39.30;;;19.00;;
5904;SDS011;2978;42.012;24.880;2022-12-11T15:28:59;23.80;;;11.70;;
5904;SDS011;2978;42.012;24.880;2022-12-11T15:31:27;10.30;;;4.70;;
5904;SDS011;2978;42.012;24.880;2022-12-11T15:33:54;11.97;;;7.00;;
5904;SDS011;2978;42.012;24.880;2022-12-11T15:38:50;24.13;;;11.87;;
5904;SDS011;2978;42.012;24.880;2022-12-11T15:41:17;52.50;;;21.40;;
5904;SDS011;2978;42.012;24.880;2022-12-11T15:43:50;15.33;;;8.77;;
5904;SDS011;2978;42.012;24.880;2022-12-11T15:46:18;21.53;;;5.70;;
5904;SDS011;2978;42.012;24.880;2022-12-11T15:48:44;4.90;;;3.53;;
5904;SDS011;2978;42.012;24.880;2022-12-11T15:51:11;7.00;;;4.90;;
5904;SDS011;2978;42.012;24.880;2022-12-11T15:53:37;6.87;;;4.77;;
5904;SDS011;2978;42.012;24.880;2022-12-11T15:56:02;5.90;;;3.93;;
5904;SDS011;2978;42.012;24.880;2022-12-11T15:58:28;6.80;;;3.67;;
5904;SDS011;2978;42.012;24.880;2022-12-11T16:00:54;3.57;;;2.70;;
5904;SDS011;2978;42.012;24.880;2022-12-11T16:03:20;2.70;;;2.10;;
5904;SDS011;2978;42.012;24.880;2022-12-11T16:05:47;5.07;;;3.30;;
5904;SDS011;2978;42.012;24.880;2022-12-11T16:08:14;4.17;;;2.90;;
5904;SDS011;2978;42.012;24.880;2022-12-11T16:10:42;2.10;;;1.70;;
5904;SDS011;2978;42.012;24.880;2022-12-11T16:13:08;1.67;;;1.57;;
5904;SDS011;2978;42.012;24.880;2022-12-11T16:15:38;6.57;;;1.70;;
5904;SDS011;2978;42.012;24.880;2022-12-11T16:18:07;2.00;;;1.80;;
5904;SDS011;2978;42.012;24.880;2022-12-11T16:20:35;3.90;;;2.73;;
5904;SDS011;2978;42.012;24.880;2022-12-11T16:23:02;4.23;;;3.07;;
5904;SDS011;2978;42.012;24.880;2022-12-11T16:25:28;3.90;;;3.00;;
5904;SDS011;2978;42.012;24.880;2022-12-11T16:27:57;3.23;;;1.93;;
5904;SDS011;2978;42.012;24.880;2022-12-11T16:30:25;3.00;;;1.53;;
5904;SDS011;2978;42.012;24.880;2022-12-11T16:32:52;3.50;;;2.30;;
5904;SDS011;2978;42.012;24.880;2022-12-11T16:35:18;2.73;;;2.30;;
5904;SDS011;2978;42.012;24.880;2022-12-11T16:37:44;3.40;;;2.03;;
5904;SDS011;2978;42.012;24.880;2022-12-11T16:40:09;3.80;;;2.63;;
5904;SDS011;2978;42.012;24.880;2022-12-11T16:42:36;8.60;;;6.30;;